메인 페이지
METAR-TAF:

METAR-TAF

공항 :

Fayetteville, 테네시, 미국

위도: 35-03-35N, 경도: 086-33-50W, 고도: 300m

현재 날씨관측

예보는 28분 전, 06:55시(UTC)에 발표되었습니다.
서남서3kt
온도 16°C
습도 100%
기압 1013 hPa
시정: 16.1km
고도 1500ft 상공 구름 조금
고도 2300ft 상공 구름 보통
고도 6500ft 상공 흐림

METAR: KFYM 220655Z AUTO 24003KT 10SM FEW015 SCT023 OVC065 16/16 A2991 RMK A01

시각: 02:23 (07:23 UTC)


TAF: 누락

4,000개 이상의 공항 관측 자료 및 예보 (METAR 및 TAF 보고).

지도상에서 검색 가능한 기상관측소가 노란 점과 빨간 점으로 표시되어 있습니다.

기상관측소 명을 보려면 표시 위로 마우스를 이동하세요.

날씨 관측과 예보를 보려면 클릭하세요.

지도 변경 : 확대하려면 엑스 표시가 있는 녹색 버튼, 축소하려면 빼기 표시가 있는 녹색 버튼, 다음 페이지의 지도를 보려면 녹색 화살표를 클릭하세요.


METAR-TAF: